Аэропорт: Иркутск. Иркутск

ICAO: UIII

METAR:
2022-06-26 11:30:00
UIII 261130Z VRB01MPS CAVOK 26/13 Q1006 R30/60D NOSIG RMK QFE711/0948
METAR:
2022-06-26 08:00:00
TAF UIII 260800Z 2609/2709 VRB01MPS CAVOK